Wednesday, July 23, 2014, 1:55 PM EDT

KPTB, Petersburg, Dinwiddie County Airport

Location: Petersburg, VA, United States Lat: 37.183
Local Time: 1:55 PM EDT (17:55 GMT) Lon: -77.517
Time Zone: US/Eastern Elev: 193 ft

Show me the last for .
Show Decoded

2014-07-23 13:35 METAR KPTB 231735Z 21006KT 10SM SCT038 36/23 A2996 RMK AO2 PWINO =
2014-07-23 13:15 METAR KPTB 231715Z 21005KT 10SM CLR 36/23 A2996 RMK AO2 PWINO =
2014-07-23 12:55 METAR KPTB 231655Z 19006KT 10SM CLR 36/23 A2997 RMK AO2 PWINO =
2014-07-23 12:35 METAR KPTB 231635Z 19005KT 10SM CLR 35/23 A2998 RMK AO2 PWINO =
2014-07-23 12:15 METAR KPTB 231615Z 23007KT 10SM CLR 35/24 A2998 RMK AO2 PWINO =
2014-07-23 11:55 METAR KPTB 231555Z 20005KT 10SM CLR 35/24 A2999 RMK AO2 PWINO =
2014-07-23 11:35 METAR KPTB 231535Z 19005KT 10SM CLR 34/23 A3000 RMK AO2 PWINO =
2014-07-23 11:15 METAR KPTB 231515Z 22006KT 10SM CLR 34/24 A3001 RMK AO2 PWINO =
2014-07-23 10:55 METAR KPTB 231455Z 23006KT 10SM CLR 33/24 A3001 RMK AO2 PWINO =
2014-07-23 10:35 METAR KPTB 231435Z 19005KT 10SM CLR 33/24 A3002 RMK AO2 PWINO =
2014-07-23 10:15 METAR KPTB 231415Z 23004KT 7SM CLR 32/24 A3003 RMK AO2 PWINO =
2014-07-23 09:55 METAR KPTB 231355Z 20005KT 10SM CLR 31/24 A3004 RMK AO2 PWINO =
2014-07-23 09:35 METAR KPTB 231335Z 21003KT 10SM SCT007 30/24 A3005 RMK AO2 PWINO =
2014-07-23 09:15 METAR KPTB 231315Z 21003KT 10SM BKN005 29/24 A3005 RMK AO2 PWINO =
2014-07-23 08:55 METAR KPTB 231255Z 00000KT 10SM OVC003 28/25 A3005 RMK AO2 PWINO =
2014-07-23 08:35 METAR KPTB 231235Z 21003KT 10SM OVC003 26/24 A3005 RMK AO2 PWINO =
2014-07-23 08:15 METAR KPTB 231215Z 22005KT 7SM OVC003 25/23 A3005 RMK AO2 PWINO =
2014-07-23 07:55 METAR KPTB 231155Z 22004KT 1 3/4SM OVC001 25/23 A3005 RMK AO2 PWINO =
2014-07-23 07:35 METAR KPTB 231135Z 00000KT 3/4SM OVC001 24/22 A3006 RMK AO2 PWINO =
2014-07-23 07:15 METAR KPTB 231115Z 00000KT 1/4SM OVC001 24/22 A3004 RMK AO2 PWINO =
2014-07-23 06:55 METAR KPTB 231055Z 21003KT 1/4SM OVC001 24/23 A3004 RMK AO2 PWINO =
2014-07-23 06:35 METAR KPTB 231035Z 00000KT 1/2SM OVC001 24/23 A3004 RMK AO2 PWINO =
2014-07-23 06:15 METAR KPTB 231015Z 00000KT M1/4SM OVC001 24/22 A3003 RMK AO2 PWINO =
2014-07-23 05:55 METAR KPTB 230955Z 00000KT 1/2SM OVC001 24/22 A3003 RMK AO2 PWINO =
2014-07-23 05:35 METAR KPTB 230935Z 00000KT 1/2SM OVC001 24/22 A3003 RMK AO2 PWINO =
2014-07-23 05:15 METAR KPTB 230915Z 00000KT 1/4SM OVC001 24/22 A3004 RMK AO2 PWINO =
2014-07-23 04:55 METAR KPTB 230855Z 00000KT 1/4SM OVC001 24/22 A3004 RMK AO2 PWINO =
2014-07-23 04:35 METAR KPTB 230835Z 00000KT M1/4SM OVC001 24/22 A3005 RMK AO2 PWINO =
2014-07-23 04:15 METAR KPTB 230815Z 00000KT 1/4SM OVC001 24/22 A3005 RMK AO2 PWINO =
2014-07-23 03:35 METAR KPTB 230735Z 00000KT 1 1/4SM OVC003 23/21 A3005 RMK AO2 PWINO =
2014-07-23 03:15 METAR KPTB 230715Z 00000KT 7SM BKN003 22/20 A3005 RMK AO2 PWINO =
2014-07-23 02:55 METAR KPTB 230655Z 00000KT 1 1/4SM VV007 22/20 A3005 RMK AO2 VIS 3/4V5 PWINO =
2014-07-23 02:35 METAR KPTB 230635Z 00000KT 5SM CLR 22/21 A3006 RMK AO2 PWINO =
2014-07-23 02:15 METAR KPTB 230615Z 00000KT 4SM CLR 23/21 A3007 RMK AO2 PWINO =
2014-07-23 01:55 METAR KPTB 230555Z 00000KT 7SM CLR 23/21 A3008 RMK AO2 PWINO =
2014-07-23 01:35 METAR KPTB 230535Z 00000KT 10SM SCT011 23/22 A3008 RMK AO2 PWINO =
2014-07-23 01:15 METAR KPTB 230515Z 00000KT 7SM SCT011 24/22 A3009 RMK AO2 PWINO =
2014-07-23 00:55 METAR KPTB 230455Z 00000KT 10SM CLR 23/22 A3010 RMK AO2 PWINO =
2014-07-23 00:35 METAR KPTB 230435Z 00000KT 10SM CLR 24/22 A3010 RMK AO2 PWINO =
2014-07-23 00:15 METAR KPTB 230415Z 00000KT 10SM CLR 24/23 A3010 RMK AO2 PWINO =
2014-07-22 23:15 METAR KPTB 230315Z 00000KT 10SM CLR 26/23 A3010 RMK AO2 PWINO =
2014-07-22 22:55 METAR KPTB 230255Z 00000KT 10SM CLR 26/23 A3010 RMK AO2 PWINO =
2014-07-22 22:35 METAR KPTB 230235Z 00000KT 10SM CLR 26/23 A3010 RMK AO2 PWINO =
2014-07-22 22:15 METAR KPTB 230215Z 00000KT 10SM CLR 26/24 A3010 RMK AO2 PWINO =
2014-07-22 21:35 METAR KPTB 230135Z 00000KT 10SM CLR 27/23 A3010 RMK AO2 PWINO =
2014-07-22 21:15 METAR KPTB 230115Z 00000KT 10SM CLR 27/23 A3010 RMK AO2 PWINO =
2014-07-22 20:55 METAR KPTB 230055Z 00000KT 10SM CLR 28/23 A3009 RMK AO2 PWINO =
2014-07-22 20:35 METAR KPTB 230035Z 15003KT 10SM CLR 28/23 A3009 RMK AO2 PWINO =
2014-07-22 20:15 METAR KPTB 230015Z 13003KT 10SM CLR 29/23 A3009 RMK AO2 PWINO =
2014-07-22 19:55 METAR KPTB 222355Z 00000KT 10SM CLR 30/23 A3009 RMK AO2 PWINO =
2014-07-22 19:35 METAR KPTB 222335Z 00000KT 10SM SCT085 31/23 A3009 RMK AO2 PWINO =
2014-07-22 19:15 METAR KPTB 222315Z 14003KT 10SM SCT048 BKN085 32/23 A3009 RMK AO2 PWINO =
2014-07-22 18:55 METAR KPTB 222255Z 12003KT 10SM SCT048 32/22 A3009 RMK AO2 PWINO =
2014-07-22 18:35 METAR KPTB 222235Z 00000KT 10SM SCT041 32/22 A3009 RMK AO2 PWINO =
2014-07-22 18:15 METAR KPTB 222215Z 11005KT 10SM SCT075 33/22 A3009 RMK AO2 PWINO =
2014-07-22 17:55 METAR KPTB 222155Z 00000KT 10SM BKN075 33/21 A3010 RMK AO2 PWINO =
2014-07-22 17:35 METAR KPTB 222135Z 08005KT 10SM OVC075 34/21 A3010 RMK AO2 PWINO =
2014-07-22 17:15 METAR KPTB 222115Z 10005KT 10SM OVC075 34/22 A3010 RMK AO2 PWINO =
2014-07-22 16:55 METAR KPTB 222055Z 10005KT 10SM OVC075 33/22 A3011 RMK AO2 PWINO =
2014-07-22 16:35 METAR KPTB 222035Z 13005KT 10SM SCT075 34/22 A3011 RMK AO2 PWINO =
2014-07-22 16:15 METAR KPTB 222015Z 11005KT 10SM SCT037 SCT075 35/21 A3011 RMK AO2 PWINO =
2014-07-22 15:55 METAR KPTB 221955Z 08005KT 10SM SCT037 SCT075 33/22 A3011 RMK AO2 PWINO =
2014-07-22 15:35 METAR KPTB 221935Z 12003KT 10SM BKN075 33/21 A3011 RMK AO2 PWINO =
2014-07-22 15:15 METAR KPTB 221915Z 09006KT 10SM BKN075 34/22 A3012 RMK AO2 PWINO =
2014-07-22 14:35 METAR KPTB 221835Z 00000KT 10SM BKN033 BKN060 34/21 A3013 RMK AO2 PWINO =
2014-07-22 14:15 METAR KPTB 221815Z 11003KT 10SM SCT033 BKN060 33/21 A3013 RMK AO2 PWINO =
2014-07-22 13:55 METAR KPTB 221755Z 00000KT 10SM SCT034 BKN060 34/21 A3014 RMK AO2 PWINO =

Support USWX by starting your Amazon purchase here.